createdAt,value
2017-09-02T00:00:37.634Z,0
2017-09-02T00:01:37.618Z,0
2017-09-02T00:02:37.308Z,0
2017-09-02T00:03:37.597Z,0
2017-09-02T00:04:37.632Z,0
2017-09-02T00:05:37.562Z,0
2017-09-02T00:06:37.555Z,0
2017-09-02T00:07:37.542Z,0
2017-09-02T00:08:37.533Z,0
2017-09-02T00:09:38.467Z,0
2017-09-02T00:10:37.817Z,0
2017-09-02T00:11:37.486Z,0
2017-09-02T00:12:36.827Z,0
2017-09-02T00:13:38.104Z,0
2017-09-02T00:14:37.765Z,0
2017-09-02T00:15:37.441Z,0
2017-09-02T00:16:37.094Z,0
2017-09-02T00:17:37.437Z,0
2017-09-02T00:18:37.384Z,0
2017-09-02T00:19:37.100Z,0
2017-09-02T00:20:37.689Z,0
2017-09-02T00:21:37.355Z,0
2017-09-02T00:22:37.347Z,0
2017-09-02T00:23:37.659Z,0
2017-09-02T00:24:37.631Z,0
2017-09-02T00:25:37.610Z,0
2017-09-02T00:26:36.954Z,0
2017-09-02T00:27:37.578Z,0
2017-09-02T00:28:37.892Z,0
2017-09-02T00:29:36.913Z,0
2017-09-02T00:30:36.900Z,0
2017-09-02T00:31:36.569Z,0
2017-09-02T00:32:36.871Z,0
2017-09-02T00:33:37.493Z,0
2017-09-02T00:34:36.847Z,0
2017-09-02T00:35:36.830Z,0
2017-09-02T00:36:37.794Z,0
2017-09-02T00:37:36.798Z,0
2017-09-02T00:38:36.790Z,0
2017-09-02T00:39:36.824Z,0
2017-09-02T00:40:36.756Z,0
2017-09-02T00:41:36.748Z,0
2017-09-02T00:42:37.381Z,0
2017-09-02T00:43:37.359Z,0
2017-09-02T00:44:37.022Z,0
2017-09-02T00:45:36.692Z,0
2017-09-02T00:46:36.999Z,0
2017-09-02T00:47:36.659Z,0
2017-09-02T00:48:36.647Z,0
2017-09-02T00:49:37.277Z,0
2017-09-02T00:50:37.255Z,0
2017-09-02T00:51:36.605Z,0
2017-09-02T00:52:36.601Z,0
2017-09-02T00:53:37.548Z,0
2017-09-02T00:54:36.884Z,0
2017-09-02T00:55:37.194Z,0
2017-09-02T00:56:37.186Z,0
2017-09-02T00:57:37.187Z,0
2017-09-02T00:58:36.829Z,0
2017-09-02T00:59:36.181Z,0
2017-09-02T01:00:36.811Z,0
2017-09-02T01:01:37.109Z,0
2017-09-02T01:02:37.094Z,0
2017-09-02T01:03:37.091Z,0
2017-09-02T01:04:36.751Z,0
2017-09-02T01:05:36.097Z,0
2017-09-02T01:06:37.045Z,0
2017-09-02T01:07:36.403Z,0
2017-09-02T01:08:37.016Z,0
2017-09-02T01:09:37.000Z,0
2017-09-02T01:10:36.669Z,0
2017-09-02T01:11:36.332Z,0
2017-09-02T01:12:36.958Z,0
2017-09-02T01:13:36.305Z,0
2017-09-02T01:14:36.615Z,0
2017-09-02T01:15:36.279Z,0
2017-09-02T01:16:35.940Z,0
2017-09-02T01:17:36.903Z,0
2017-09-02T01:18:36.269Z,0
2017-09-02T01:19:36.253Z,0
2017-09-02T01:20:36.891Z,0
2017-09-02T01:21:36.758Z,0
2017-09-02T01:22:36.879Z,0
2017-09-02T01:23:36.182Z,0
2017-09-02T01:24:36.156Z,0
2017-09-02T01:25:36.467Z,0
2017-09-02T01:26:36.450Z,0
2017-09-02T01:27:37.082Z,0
2017-09-02T01:28:36.110Z,0
2017-09-02T01:29:36.082Z,0
2017-09-02T01:30:36.391Z,0
2017-09-02T01:31:36.700Z,0
2017-09-02T01:32:36.700Z,0
2017-09-02T01:33:36.031Z,0
2017-09-02T01:34:36.681Z,0
2017-09-02T01:35:36.000Z,0
2017-09-02T01:36:36.311Z,0
2017-09-02T01:37:36.296Z,0
2017-09-02T01:38:36.615Z,0
2017-09-02T01:39:36.603Z,0
2017-09-02T01:40:36.270Z,0
2017-09-02T01:41:36.253Z,0
2017-09-02T01:42:36.871Z,0
2017-09-02T01:43:35.573Z,0
2017-09-02T01:44:36.563Z,0
2017-09-02T01:45:36.547Z,0
2017-09-02T01:46:36.172Z,0
2017-09-02T01:47:35.835Z,0
2017-09-02T01:48:36.477Z,0
2017-09-02T01:49:35.815Z,0
2017-09-02T01:50:36.433Z,0
2017-09-02T01:51:35.781Z,0
2017-09-02T01:52:35.768Z,0
2017-09-02T01:53:35.436Z,0
2017-09-02T01:54:35.420Z,0
2017-09-02T01:55:36.045Z,0
2017-09-02T01:56:36.036Z,0
2017-09-02T01:57:36.021Z,0
2017-09-02T01:58:36.012Z,0
2017-09-02T01:59:35.988Z,0
2017-09-02T02:00:35.662Z,0
2017-09-02T02:01:35.639Z,0
2017-09-02T02:02:35.623Z,0
2017-09-02T02:03:36.255Z,0
2017-09-02T02:04:35.971Z,0
2017-09-02T02:05:35.968Z,0
2017-09-02T02:06:36.544Z,0
2017-09-02T02:07:35.560Z,0
2017-09-02T02:08:36.187Z,0
2017-09-02T02:09:35.852Z,0
2017-09-02T02:10:36.094Z,0
2017-09-02T02:11:35.825Z,0
2017-09-02T02:12:36.457Z,0
2017-09-02T02:13:35.161Z,0
2017-09-02T02:14:35.787Z,0
2017-09-02T02:15:35.828Z,0
2017-09-02T02:16:35.442Z,0
2017-09-02T02:17:35.744Z,0
2017-09-02T02:18:35.732Z,0
2017-09-02T02:19:35.713Z,0
2017-09-02T02:20:36.019Z,0
2017-09-02T02:21:35.691Z,0
2017-09-02T02:22:35.672Z,0
2017-09-02T02:23:35.653Z,0
2017-09-02T02:24:35.976Z,0
2017-09-02T02:25:35.319Z,0
2017-09-02T02:26:35.301Z,0
2017-09-02T02:27:35.608Z,0
2017-09-02T02:28:35.912Z,0
2017-09-02T02:29:35.578Z,0
2017-09-02T02:30:35.568Z,0
2017-09-02T02:31:35.555Z,0
2017-09-02T02:32:35.539Z,0
2017-09-02T02:33:35.206Z,0
2017-09-02T02:34:35.504Z,0
2017-09-02T02:35:35.885Z,0
2017-09-02T02:36:36.160Z,0
2017-09-02T02:37:34.858Z,0
2017-09-02T02:38:36.097Z,0
2017-09-02T02:39:35.761Z,0
2017-09-02T02:40:35.425Z,0
2017-09-02T02:41:35.734Z,0
2017-09-02T02:42:35.732Z,0
2017-09-02T02:43:35.391Z,0
2017-09-02T02:44:35.106Z,0
2017-09-02T02:45:35.679Z,0
2017-09-02T02:46:35.347Z,0
2017-09-02T02:47:35.335Z,0
2017-09-02T02:48:35.003Z,0
2017-09-02T02:49:34.989Z,0
2017-09-02T02:50:35.613Z,0
2017-09-02T02:51:35.332Z,0
2017-09-02T02:52:35.264Z,0
2017-09-02T02:53:34.928Z,0
2017-09-02T02:54:35.235Z,0
2017-09-02T02:55:35.544Z,0
2017-09-02T02:56:34.569Z,0
2017-09-02T02:57:35.517Z,0
2017-09-02T02:58:35.188Z,0
2017-09-02T02:59:35.173Z,0
2017-09-02T03:00:35.166Z,0
2017-09-02T03:01:35.463Z,0
2017-09-02T03:02:34.812Z,0
2017-09-02T03:03:35.435Z,0
2017-09-02T03:04:35.102Z,0
2017-09-02T03:05:34.771Z,0
2017-09-02T03:06:34.758Z,0
2017-09-02T03:07:34.419Z,0
2017-09-02T03:08:34.408Z,0
2017-09-02T03:09:35.083Z,0
2017-09-02T03:10:35.344Z,0
2017-09-02T03:11:35.327Z,0
2017-09-02T03:12:34.990Z,0
2017-09-02T03:13:34.333Z,0
2017-09-02T03:14:35.170Z,0
2017-09-02T03:15:34.953Z,0
2017-09-02T03:16:34.990Z,0
2017-09-02T03:17:34.919Z,0
2017-09-02T03:18:34.913Z,0
2017-09-02T03:19:35.213Z,0
2017-09-02T03:20:34.879Z,0
2017-09-02T03:21:34.865Z,0
2017-09-02T03:22:34.210Z,0
2017-09-02T03:23:34.887Z,0
2017-09-02T03:24:34.533Z,0
2017-09-02T03:25:34.520Z,0
2017-09-02T03:26:34.802Z,0
2017-09-02T03:27:34.783Z,0
2017-09-02T03:28:35.094Z,0
2017-09-02T03:29:34.759Z,0
2017-09-02T03:30:34.427Z,0
2017-09-02T03:31:34.728Z,0
2017-09-02T03:32:35.368Z,0
2017-09-02T03:33:35.031Z,0
2017-09-02T03:34:35.008Z,0
2017-09-02T03:35:34.675Z,0
2017-09-02T03:36:35.300Z,0
2017-09-02T03:37:34.329Z,0
2017-09-02T03:38:34.971Z,0
2017-09-02T03:39:34.619Z,0
2017-09-02T03:40:34.606Z,0
2017-09-02T03:41:34.593Z,0
2017-09-02T03:42:34.265Z,0
2017-09-02T03:43:34.563Z,0
2017-09-02T03:44:34.552Z,0
2017-09-02T03:45:34.539Z,0
2017-09-02T03:46:34.204Z,0
2017-09-02T03:47:34.186Z,0
2017-09-02T03:48:34.824Z,0
2017-09-02T03:49:34.800Z,0
2017-09-02T03:50:34.467Z,0
2017-09-02T03:51:34.454Z,0
2017-09-02T03:52:34.759Z,0
2017-09-02T03:53:34.433Z,0
2017-09-02T03:54:34.419Z,0
2017-09-02T03:55:34.402Z,0
2017-09-02T03:56:34.067Z,0
2017-09-02T03:57:33.808Z,0
2017-09-02T03:58:34.028Z,0
2017-09-02T03:59:34.659Z,0
2017-09-02T04:00:34.326Z,0
2017-09-02T04:01:33.665Z,0
2017-09-02T04:02:34.350Z,0
2017-09-02T04:03:34.306Z,0
2017-09-02T04:04:34.616Z,0
2017-09-02T04:05:33.942Z,0
2017-09-02T04:06:34.241Z,0
2017-09-02T04:07:34.563Z,0
2017-09-02T04:08:34.534Z,0
2017-09-02T04:09:34.199Z,0
2017-09-02T04:10:34.718Z,0
2017-09-02T04:11:33.540Z,0
2017-09-02T04:12:34.164Z,0
2017-09-02T04:13:33.829Z,0
2017-09-02T04:14:34.128Z,0
2017-09-02T04:15:34.443Z,0
2017-09-02T04:16:33.778Z,0
2017-09-02T04:17:34.458Z,0
2017-09-02T04:18:34.071Z,0
2017-09-02T04:19:34.066Z,0
2017-09-02T04:20:34.061Z,0
2017-09-02T04:21:34.373Z,0
2017-09-02T04:22:33.701Z,0
2017-09-02T04:23:34.661Z,0
2017-09-02T04:24:33.994Z,0
2017-09-02T04:25:33.668Z,0
2017-09-02T04:26:33.652Z,0
2017-09-02T04:27:33.670Z,0
2017-09-02T04:28:33.613Z,0
2017-09-02T04:29:33.312Z,0
2017-09-02T04:30:34.227Z,0
2017-09-02T04:31:33.897Z,0
2017-09-02T04:32:33.901Z,0
2017-09-02T04:33:34.190Z,0
2017-09-02T04:34:34.501Z,0
2017-09-02T04:35:34.189Z,0
2017-09-02T04:36:33.830Z,0
2017-09-02T04:37:33.820Z,0
2017-09-02T04:38:33.153Z,0
2017-09-02T04:39:33.795Z,0
2017-09-02T04:40:33.762Z,0
2017-09-02T04:41:33.769Z,0
2017-09-02T04:42:33.419Z,0
2017-09-02T04:43:33.747Z,0
2017-09-02T04:44:34.351Z,0
2017-09-02T04:45:33.708Z,0
2017-09-02T04:46:33.692Z,0
2017-09-02T04:47:34.012Z,0
2017-09-02T04:48:33.976Z,0
2017-09-02T04:49:33.321Z,0
2017-09-02T04:50:34.004Z,0
2017-09-02T04:51:33.940Z,0
2017-09-02T04:52:33.285Z,5
2017-09-02T04:53:33.267Z,5
2017-09-02T04:54:33.575Z,5
2017-09-02T04:55:33.889Z,5
2017-09-02T04:56:33.247Z,5
2017-09-02T04:57:32.902Z,5
2017-09-02T04:58:34.416Z,5
2017-09-02T04:59:33.522Z,5
2017-09-02T05:00:33.165Z,5
2017-09-02T05:01:34.326Z,5
2017-09-02T05:02:33.793Z,5
2017-09-02T05:03:33.775Z,5
2017-09-02T05:04:33.756Z,5
2017-09-02T05:05:33.420Z,5
2017-09-02T05:06:33.113Z,5
2017-09-02T05:07:34.054Z,5
2017-09-02T05:08:33.062Z,5
2017-09-02T05:09:33.361Z,5
2017-09-02T05:10:33.346Z,5
2017-09-02T05:11:33.011Z,5
2017-09-02T05:12:33.326Z,10
2017-09-02T05:13:33.620Z,10
2017-09-02T05:14:32.974Z,10
2017-09-02T05:15:33.594Z,10
2017-09-02T05:16:33.588Z,10
2017-09-02T05:17:32.954Z,10
2017-09-02T05:18:33.293Z,10
2017-09-02T05:19:33.229Z,10
2017-09-02T05:20:32.890Z,15
2017-09-02T05:21:32.561Z,15
2017-09-02T05:22:32.862Z,15
2017-09-02T05:23:32.841Z,15
2017-09-02T05:24:33.479Z,15
2017-09-02T05:25:33.166Z,15
2017-09-02T05:26:32.484Z,15
2017-09-02T05:27:32.789Z,20
2017-09-02T05:28:33.098Z,20
2017-09-02T05:29:32.759Z,20
2017-09-02T05:30:33.708Z,20
2017-09-02T05:31:32.733Z,20
2017-09-02T05:32:32.769Z,25
2017-09-02T05:33:32.739Z,25
2017-09-02T05:34:32.694Z,25
2017-09-02T05:35:33.316Z,25
2017-09-02T05:36:32.664Z,25
2017-09-02T05:37:33.300Z,25
2017-09-02T05:38:33.593Z,30
2017-09-02T05:39:32.622Z,30
2017-09-02T05:40:33.257Z,30
2017-09-02T05:41:32.614Z,30
2017-09-02T05:42:32.594Z,30
2017-09-02T05:43:32.944Z,30
2017-09-02T05:44:32.873Z,30
2017-09-02T05:45:32.870Z,30
2017-09-02T05:46:33.175Z,30
2017-09-02T05:47:32.851Z,30
2017-09-02T05:48:32.551Z,30
2017-09-02T05:49:32.804Z,30
2017-09-02T05:50:32.788Z,35
2017-09-02T05:51:32.780Z,30
2017-09-02T05:52:32.445Z,30
2017-09-02T05:53:32.429Z,30
2017-09-02T05:54:33.079Z,30
2017-09-02T05:55:32.733Z,35
2017-09-02T05:56:32.068Z,35
2017-09-02T05:57:33.014Z,35
2017-09-02T05:58:33.326Z,35
2017-09-02T05:59:32.680Z,35
2017-09-02T06:00:32.332Z,35
2017-09-02T06:01:33.283Z,35
2017-09-02T06:02:32.954Z,35
2017-09-02T06:03:32.940Z,35
2017-09-02T06:04:32.650Z,40
2017-09-02T06:05:32.908Z,40
2017-09-02T06:06:32.940Z,40
2017-09-02T06:07:32.246Z,45
2017-09-02T06:08:31.911Z,50
2017-09-02T06:09:31.966Z,50
2017-09-02T06:10:32.081Z,55
2017-09-02T06:11:32.538Z,55
2017-09-02T06:12:32.490Z,60
2017-09-02T06:13:32.165Z,65
2017-09-02T06:14:32.466Z,65
2017-09-02T06:15:33.106Z,70
2017-09-02T06:16:32.446Z,70
2017-09-02T06:17:32.459Z,70
2017-09-02T06:18:32.106Z,70
2017-09-02T06:19:32.398Z,70
2017-09-02T06:20:32.713Z,75
2017-09-02T06:21:32.373Z,75
2017-09-02T06:22:32.051Z,75
2017-09-02T06:23:32.672Z,75
2017-09-02T06:24:32.658Z,75
2017-09-02T06:25:32.644Z,80
2017-09-02T06:26:31.987Z,80
2017-09-02T06:27:32.628Z,80
2017-09-02T06:28:31.641Z,75
2017-09-02T06:29:32.274Z,75
2017-09-02T06:30:32.579Z,75
2017-09-02T06:31:32.250Z,75
2017-09-02T06:32:32.591Z,75
2017-09-02T06:33:32.214Z,75
2017-09-02T06:34:32.526Z,75
2017-09-02T06:35:32.188Z,75
2017-09-02T06:36:32.500Z,75
2017-09-02T06:37:32.166Z,75
2017-09-02T06:38:32.152Z,80
2017-09-02T06:39:32.462Z,80
2017-09-02T06:40:32.459Z,80
2017-09-02T06:41:32.114Z,85
2017-09-02T06:42:32.419Z,85
2017-09-02T06:43:32.092Z,85
2017-09-02T06:44:31.434Z,90
2017-09-02T06:45:32.066Z,90
2017-09-02T06:46:32.055Z,95
2017-09-02T06:47:31.715Z,95
2017-09-02T06:48:32.349Z,95
2017-09-02T06:49:32.331Z,95
2017-09-02T06:50:31.385Z,95
2017-09-02T06:51:31.982Z,95
2017-09-02T06:52:31.968Z,95
2017-09-02T06:53:32.287Z,95
2017-09-02T06:54:32.263Z,100
2017-09-02T06:55:32.256Z,100
2017-09-02T06:56:31.923Z,100
2017-09-02T06:57:32.226Z,100
2017-09-02T06:58:32.232Z,95
2017-09-02T06:59:32.521Z,95
2017-09-02T07:00:31.545Z,95
2017-09-02T07:01:32.516Z,95
2017-09-02T07:02:31.532Z,100
2017-09-02T07:03:31.836Z,100
2017-09-02T07:04:31.824Z,100
2017-09-02T07:05:31.814Z,100
2017-09-02T07:06:31.786Z,100
2017-09-02T07:07:32.111Z,100
2017-09-02T07:08:32.085Z,105
2017-09-02T07:09:32.069Z,105
2017-09-02T07:10:31.415Z,105
2017-09-02T07:11:31.413Z,110
2017-09-02T07:12:31.719Z,110
2017-09-02T07:13:31.377Z,110
2017-09-02T07:14:31.688Z,115
2017-09-02T07:15:31.031Z,115
2017-09-02T07:16:31.675Z,120
2017-09-02T07:17:31.649Z,120
2017-09-02T07:18:31.642Z,120
2017-09-02T07:19:31.655Z,120
2017-09-02T07:20:31.610Z,125
2017-09-02T07:21:31.963Z,125
2017-09-02T07:22:31.268Z,125
2017-09-02T07:23:31.259Z,125
2017-09-02T07:24:31.249Z,130
2017-09-02T07:25:31.547Z,130
2017-09-02T07:26:31.862Z,130
2017-09-02T07:27:31.843Z,130
2017-09-02T07:28:31.509Z,135
2017-09-02T07:29:31.177Z,135
2017-09-02T07:30:32.179Z,135
2017-09-02T07:31:32.126Z,135
2017-09-02T07:32:31.781Z,140
2017-09-02T07:33:31.772Z,140
2017-09-02T07:34:31.759Z,140
2017-09-02T07:35:31.427Z,140
2017-09-02T07:36:31.416Z,140
2017-09-02T07:37:31.399Z,140
2017-09-02T07:38:31.064Z,140
2017-09-02T07:39:31.691Z,140
2017-09-02T07:40:30.717Z,135
2017-09-02T07:41:31.403Z,135
2017-09-02T07:42:31.338Z,135
2017-09-02T07:43:31.650Z,140
2017-09-02T07:44:31.634Z,140
2017-09-02T07:45:31.294Z,140
2017-09-02T07:46:31.299Z,140
2017-09-02T07:47:31.594Z,145
2017-09-02T07:48:31.262Z,145
2017-09-02T07:49:30.924Z,145
2017-09-02T07:50:31.563Z,145
2017-09-02T07:51:31.226Z,145
2017-09-02T07:52:31.227Z,145
2017-09-02T07:53:31.206Z,145
2017-09-02T07:54:31.188Z,145
2017-09-02T07:55:31.179Z,145
2017-09-02T07:56:31.495Z,150
2017-09-02T07:57:31.160Z,150
2017-09-02T07:58:30.818Z,155
2017-09-02T07:59:31.450Z,150
2017-09-02T08:00:30.796Z,150
2017-09-02T08:01:30.786Z,155
2017-09-02T08:02:31.095Z,155
2017-09-02T08:03:31.079Z,155
2017-09-02T08:04:30.754Z,150
2017-09-02T08:05:31.060Z,150
2017-09-02T08:06:31.048Z,150
2017-09-02T08:07:30.710Z,150
2017-09-02T08:08:31.080Z,155
2017-09-02T08:09:31.349Z,155
2017-09-02T08:10:31.524Z,155
2017-09-02T08:11:31.635Z,155
2017-09-02T08:12:30.982Z,180
2017-09-02T08:13:30.973Z,235
2017-09-02T08:14:31.277Z,170
2017-09-02T08:15:31.268Z,155
2017-09-02T08:16:30.970Z,155
2017-09-02T08:17:30.923Z,155
2017-09-02T08:18:30.910Z,170
2017-09-02T08:19:30.586Z,170
2017-09-02T08:20:30.568Z,170
2017-09-02T08:21:30.880Z,175
2017-09-02T08:22:30.865Z,240
2017-09-02T08:23:30.863Z,245
2017-09-02T08:24:31.172Z,210
2017-09-02T08:25:31.161Z,215
2017-09-02T08:26:30.824Z,235
2017-09-02T08:27:31.137Z,240
2017-09-02T08:28:30.801Z,170
2017-09-02T08:29:30.805Z,170
2017-09-02T08:30:30.780Z,180
2017-09-02T08:31:30.450Z,180
2017-09-02T08:32:31.082Z,170
2017-09-02T08:33:30.431Z,165
2017-09-02T08:34:31.383Z,165
2017-09-02T08:35:30.729Z,160
2017-09-02T08:36:30.072Z,160
2017-09-02T08:37:31.025Z,160
2017-09-02T08:38:30.372Z,165
2017-09-02T08:39:31.003Z,160
2017-09-02T08:40:30.026Z,165
2017-09-02T08:41:30.665Z,165
2017-09-02T08:42:30.981Z,160
2017-09-02T08:43:30.643Z,160
2017-09-02T08:44:30.647Z,160
2017-09-02T08:45:31.258Z,165
2017-09-02T08:46:30.925Z,165
2017-09-02T08:47:31.241Z,170
2017-09-02T08:48:30.271Z,170
2017-09-02T08:49:30.573Z,170
2017-09-02T08:50:30.890Z,170
2017-09-02T08:51:30.893Z,170
2017-09-02T08:52:30.558Z,170
2017-09-02T08:53:30.205Z,165
2017-09-02T08:54:30.521Z,165
2017-09-02T08:55:30.512Z,165
2017-09-02T08:56:30.175Z,165
2017-09-02T08:57:30.496Z,170
2017-09-02T08:58:30.168Z,180
2017-09-02T08:59:30.473Z,220
2017-09-02T09:00:30.456Z,205
2017-09-02T09:01:30.126Z,175
2017-09-02T09:02:30.754Z,180
2017-09-02T09:03:30.433Z,180
2017-09-02T09:04:30.738Z,180
2017-09-02T09:05:30.410Z,185
2017-09-02T09:06:30.076Z,180
2017-09-02T09:07:30.384Z,190
2017-09-02T09:08:30.697Z,210
2017-09-02T09:09:29.729Z,215
2017-09-02T09:10:30.355Z,225
2017-09-02T09:11:30.347Z,250
2017-09-02T09:12:30.333Z,255
2017-09-02T09:13:30.963Z,265
2017-09-02T09:14:29.997Z,315
2017-09-02T09:15:29.663Z,390
2017-09-02T09:16:29.972Z,365
2017-09-02T09:17:30.933Z,345
2017-09-02T09:18:30.597Z,330
2017-09-02T09:19:30.611Z,315
2017-09-02T09:20:30.579Z,290
2017-09-02T09:21:30.253Z,230
2017-09-02T09:22:30.238Z,210
2017-09-02T09:23:29.917Z,180
2017-09-02T09:24:29.897Z,165
2017-09-02T09:25:30.230Z,165
2017-09-02T09:26:29.881Z,165
2017-09-02T09:27:30.192Z,180
2017-09-02T09:28:30.181Z,190
2017-09-02T09:29:30.494Z,200
2017-09-02T09:30:30.508Z,225
2017-09-02T09:31:30.154Z,240
2017-09-02T09:32:30.188Z,260
2017-09-02T09:33:30.461Z,280
2017-09-02T09:34:30.449Z,320
2017-09-02T09:35:30.758Z,330
2017-09-02T09:36:30.108Z,315
2017-09-02T09:37:30.429Z,310
2017-09-02T09:38:30.470Z,305
2017-09-02T09:39:30.093Z,280
2017-09-02T09:40:29.760Z,265
2017-09-02T09:41:29.749Z,255
2017-09-02T09:42:30.069Z,270
2017-09-02T09:43:30.382Z,235
2017-09-02T09:44:29.739Z,215
2017-09-02T09:45:30.680Z,190
2017-09-02T09:46:30.362Z,165
2017-09-02T09:47:29.700Z,160
2017-09-02T09:48:30.019Z,140
2017-09-02T09:49:30.010Z,135
2017-09-02T09:50:30.324Z,135
2017-09-02T09:51:29.989Z,135
2017-09-02T09:52:30.363Z,130
2017-09-02T09:53:30.347Z,135
2017-09-02T09:54:29.637Z,125
2017-09-02T09:55:29.632Z,125
2017-09-02T09:56:30.268Z,120
2017-09-02T09:57:29.613Z,120
2017-09-02T09:58:29.919Z,115
2017-09-02T09:59:29.923Z,120
2017-09-02T10:00:29.915Z,140
2017-09-02T10:01:30.218Z,165
2017-09-02T10:02:29.569Z,180
2017-09-02T10:03:30.266Z,190
2017-09-02T10:04:30.518Z,210
2017-09-02T10:05:29.871Z,250
2017-09-02T10:06:29.861Z,270
2017-09-02T10:07:29.207Z,275
2017-09-02T10:08:29.634Z,270
2017-09-02T10:09:30.489Z,280
2017-09-02T10:10:29.697Z,290
2017-09-02T10:11:30.131Z,300
2017-09-02T10:12:29.816Z,275
2017-09-02T10:13:30.110Z,255
2017-09-02T10:14:29.139Z,240
2017-09-02T10:15:30.106Z,215
2017-09-02T10:16:29.450Z,190
2017-09-02T10:17:30.085Z,185
2017-09-02T10:18:29.761Z,200
2017-09-02T10:19:29.417Z,215
2017-09-02T10:20:29.733Z,200
2017-09-02T10:21:29.725Z,195
2017-09-02T10:22:29.818Z,195
2017-09-02T10:23:29.707Z,200
2017-09-02T10:24:29.715Z,220
2017-09-02T10:25:30.013Z,215
2017-09-02T10:26:29.682Z,225
2017-09-02T10:27:29.681Z,230
2017-09-02T10:28:29.667Z,275
2017-09-02T10:29:30.301Z,255
2017-09-02T10:30:29.966Z,225
2017-09-02T10:31:29.641Z,255
2017-09-02T10:32:29.322Z,305
2017-09-02T10:33:29.296Z,315
2017-09-02T10:34:29.935Z,385
2017-09-02T10:35:29.288Z,920
2017-09-02T10:36:29.619Z,1050
2017-09-02T10:37:29.291Z,780
2017-09-02T10:38:29.300Z,280
2017-09-02T10:39:29.577Z,270
2017-09-02T10:40:29.254Z,280
2017-09-02T10:41:29.240Z,280
2017-09-02T10:42:30.189Z,270
2017-09-02T10:43:29.540Z,260
2017-09-02T10:44:29.215Z,255
2017-09-02T10:45:30.168Z,255
2017-09-02T10:46:29.528Z,470
2017-09-02T10:47:29.837Z,585
2017-09-02T10:48:29.830Z,410
2017-09-02T10:49:29.826Z,545
2017-09-02T10:50:29.503Z,555
2017-09-02T10:51:29.502Z,480
2017-09-02T10:52:30.130Z,355
2017-09-02T10:53:29.273Z,270
2017-09-02T10:54:29.139Z,260
2017-09-02T10:55:29.996Z,275
2017-09-02T10:56:29.851Z,280
2017-09-02T10:57:29.790Z,295
2017-09-02T10:58:29.767Z,320
2017-09-02T10:59:29.111Z,305
2017-09-02T11:00:29.433Z,300
2017-09-02T11:01:29.137Z,350
2017-09-02T11:02:29.414Z,335
2017-09-02T11:03:29.735Z,270
2017-09-02T11:04:29.724Z,390
2017-09-02T11:05:29.419Z,310
2017-09-02T11:06:29.377Z,330
2017-09-02T11:07:29.696Z,430
2017-09-02T11:08:29.683Z,385
2017-09-02T11:09:29.678Z,460
2017-09-02T11:10:29.685Z,475
2017-09-02T11:11:29.348Z,585
2017-09-02T11:12:29.033Z,1030
2017-09-02T11:13:28.712Z,280
2017-09-02T11:14:29.972Z,245
2017-09-02T11:15:29.326Z,230
2017-09-02T11:16:29.982Z,230
2017-09-02T11:17:29.315Z,220
2017-09-02T11:18:28.992Z,215
2017-09-02T11:19:29.956Z,215
2017-09-02T11:20:29.645Z,205
2017-09-02T11:21:28.971Z,215
2017-09-02T11:22:28.964Z,215
2017-09-02T11:23:28.963Z,210
2017-09-02T11:24:29.275Z,205
2017-09-02T11:25:29.594Z,210
2017-09-02T11:26:29.265Z,220
2017-09-02T11:27:28.943Z,1650
2017-09-02T11:28:29.574Z,1645
2017-09-02T11:29:29.252Z,1680
2017-09-02T11:30:29.566Z,1715
2017-09-02T11:31:29.230Z,1680
2017-09-02T11:32:28.926Z,1645
2017-09-02T11:33:29.540Z,1555
2017-09-02T11:34:29.228Z,1530
2017-09-02T11:35:29.215Z,1525
2017-09-02T11:36:29.541Z,1560
2017-09-02T11:37:28.894Z,1570
2017-09-02T11:38:29.209Z,1605
2017-09-02T11:39:29.203Z,1670
2017-09-02T11:40:29.204Z,1635
2017-09-02T11:41:29.195Z,1710
2017-09-02T11:42:28.882Z,1695
2017-09-02T11:43:29.844Z,1730
2017-09-02T11:44:28.604Z,1745
2017-09-02T11:45:29.209Z,1665
2017-09-02T11:46:29.924Z,1665
2017-09-02T11:47:29.264Z,855
2017-09-02T11:48:29.573Z,285
2017-09-02T11:49:29.256Z,255
2017-09-02T11:50:29.230Z,245
2017-09-02T11:51:29.558Z,235
2017-09-02T11:52:29.222Z,235
2017-09-02T11:53:29.221Z,230
2017-09-02T11:54:28.882Z,215
2017-09-02T11:55:29.203Z,220
2017-09-02T11:56:28.885Z,220
2017-09-02T11:57:29.213Z,230
2017-09-02T11:58:29.530Z,240
2017-09-02T11:59:28.563Z,245
2017-09-02T12:00:29.257Z,250
2017-09-02T12:01:29.523Z,260
2017-09-02T12:02:28.878Z,270
2017-09-02T12:03:28.879Z,460
2017-09-02T12:04:28.548Z,380
2017-09-02T12:05:29.187Z,1745
2017-09-02T12:06:29.504Z,1765
2017-09-02T12:07:29.182Z,1780
2017-09-02T12:08:28.853Z,1775
2017-09-02T12:09:29.829Z,1810
2017-09-02T12:10:29.704Z,1880
2017-09-02T12:11:28.854Z,1940
2017-09-02T12:12:29.172Z,1935
2017-09-02T12:13:29.173Z,1875
2017-09-02T12:14:29.173Z,1895
2017-09-02T12:15:28.535Z,900
2017-09-02T12:16:29.181Z,350
2017-09-02T12:17:28.848Z,365
2017-09-02T12:18:29.171Z,1845
2017-09-02T12:19:28.858Z,1960
2017-09-02T12:20:29.186Z,1900
2017-09-02T12:21:29.503Z,440
2017-09-02T12:22:29.185Z,380
2017-09-02T12:23:28.886Z,370
2017-09-02T12:24:28.868Z,395
2017-09-02T12:25:29.516Z,1685
2017-09-02T12:26:28.868Z,1615
2017-09-02T12:27:29.207Z,445
2017-09-02T12:28:29.185Z,260
2017-09-02T12:29:29.192Z,245
2017-09-02T12:30:29.187Z,265
2017-09-02T12:31:29.190Z,1195
2017-09-02T12:32:29.193Z,280
2017-09-02T12:33:29.561Z,240
2017-09-02T12:34:29.192Z,215
2017-09-02T12:35:28.877Z,220
2017-09-02T12:36:28.879Z,290
2017-09-02T12:37:29.518Z,555
2017-09-02T12:38:29.534Z,1705
2017-09-02T12:39:28.866Z,320
2017-09-02T12:40:29.191Z,285
2017-09-02T12:41:28.864Z,1605
2017-09-02T12:42:29.520Z,1675
2017-09-02T12:43:29.536Z,1710
2017-09-02T12:44:29.508Z,1785
2017-09-02T12:45:28.866Z,1845
2017-09-02T12:46:28.864Z,1870
2017-09-02T12:47:28.858Z,1860
2017-09-02T12:48:28.858Z,1780
2017-09-02T12:49:29.187Z,1665
2017-09-02T12:50:29.182Z,1680
2017-09-02T12:51:29.196Z,1055
2017-09-02T12:52:29.512Z,255
2017-09-02T12:53:29.508Z,210
2017-09-02T12:54:29.198Z,185
2017-09-02T12:55:29.206Z,170
2017-09-02T12:56:29.520Z,150
2017-09-02T12:57:29.205Z,140
2017-09-02T12:58:29.203Z,135
2017-09-02T12:59:29.853Z,140
2017-09-02T13:00:28.608Z,145
2017-09-02T13:01:28.888Z,150
2017-09-02T13:02:29.203Z,155
2017-09-02T13:03:29.529Z,160
2017-09-02T13:04:29.206Z,165
2017-09-02T13:05:29.217Z,170
2017-09-02T13:06:29.530Z,175
2017-09-02T13:07:29.526Z,190
2017-09-02T13:08:28.555Z,205
2017-09-02T13:09:29.198Z,235
2017-09-02T13:10:28.873Z,250
2017-09-02T13:11:29.188Z,250
2017-09-02T13:12:29.547Z,250
2017-09-02T13:13:29.832Z,285
2017-09-02T13:14:29.179Z,785
2017-09-02T13:15:29.827Z,1015
2017-09-02T13:16:28.857Z,1580
2017-09-02T13:17:28.849Z,1670
2017-09-02T13:18:28.853Z,1660
2017-09-02T13:19:29.513Z,1605
2017-09-02T13:20:29.164Z,1565
2017-09-02T13:21:29.157Z,1505
2017-09-02T13:22:29.159Z,1460
2017-09-02T13:23:29.484Z,1455
2017-09-02T13:24:28.519Z,1485
2017-09-02T13:25:29.164Z,1525
2017-09-02T13:26:29.480Z,1510
2017-09-02T13:27:28.837Z,1490
2017-09-02T13:28:29.483Z,1345
2017-09-02T13:29:28.837Z,1370
2017-09-02T13:30:29.476Z,965
2017-09-02T13:31:29.485Z,200
2017-09-02T13:32:29.157Z,155
2017-09-02T13:33:29.155Z,145
2017-09-02T13:34:29.163Z,135
2017-09-02T13:35:29.484Z,130
2017-09-02T13:36:28.842Z,125
2017-09-02T13:37:29.167Z,125
2017-09-02T13:38:28.847Z,135
2017-09-02T13:39:29.490Z,145
2017-09-02T13:40:29.171Z,165
2017-09-02T13:41:28.844Z,260
2017-09-02T13:42:29.503Z,730
2017-09-02T13:43:28.838Z,1050
2017-09-02T13:44:29.484Z,1235
2017-09-02T13:45:29.801Z,1435
2017-09-02T13:46:28.836Z,1510
2017-09-02T13:47:29.799Z,385
2017-09-02T13:48:29.157Z,275
2017-09-02T13:49:28.833Z,280
2017-09-02T13:50:29.493Z,305
2017-09-02T13:51:29.205Z,350
2017-09-02T13:52:29.148Z,235
2017-09-02T13:53:28.835Z,575
2017-09-02T13:54:29.471Z,1545
2017-09-02T13:55:28.504Z,1615
2017-09-02T13:56:29.520Z,1655
2017-09-02T13:57:29.467Z,1610
2017-09-02T13:58:29.483Z,580
2017-09-02T13:59:28.503Z,350
2017-09-02T14:00:29.463Z,310
2017-09-02T14:01:29.792Z,290
2017-09-02T14:02:29.142Z,275
2017-09-02T14:03:28.828Z,255
2017-09-02T14:04:29.810Z,220
2017-09-02T14:05:29.470Z,200
2017-09-02T14:06:29.145Z,180
2017-09-02T14:07:29.464Z,175
2017-09-02T14:08:29.147Z,200